Time;durP1;ratioP1;P1;durP2;ratioP2;P2;SDS_P1;SDS_P2;PMS_P1;PMS_P2;Temp;Humidity;BMP_temperature;BMP_pressure;BME280_temperature;BME280_humidity;BME280_pressure;Samples;Min_cycle;Max_cycle;Signal;HPM_P1;HPM_P2
2022/10/13 00:01:46;;;;;;;33.75;26.50;;;6.70;99.90;;;;;;6253562;22;20265;-87
2022/10/13 00:04:15;;;;;;;35.33;25.63;;;6.70;99.90;;;;;;6256702;22;20491;-88
2022/10/13 00:06:42;;;;;;;37.15;26.73;;;6.70;99.90;;;;;;6255245;23;20182;-86
2022/10/13 00:09:10;;;;;;;32.75;25.25;;;6.70;99.90;;;;;;6256871;22;20178;-91
2022/10/13 00:11:41;;;;;;;38.00;26.20;;;6.70;99.90;;;;;;6258161;22;20152;-90
2022/10/13 00:14:09;;;;;;;36.45;25.80;;;6.60;99.90;;;;;;6255989;23;20191;-88
2022/10/13 00:16:36;;;;;;;35.28;25.27;;;6.60;99.90;;;;;;6251065;23;20213;-88
2022/10/13 00:19:28;;;;;;;33.42;25.30;;;6.60;99.90;;;;;;6231305;23;20154;-86
2022/10/13 00:21:55;;;;;;;35.58;28.42;;;6.60;99.90;;;;;;6258125;22;20197;-87
2022/10/13 00:24:22;;;;;;;39.50;27.02;;;6.60;99.90;;;;;;6262305;22;20203;-85
2022/10/13 00:26:51;;;;;;;32.92;25.58;;;6.60;99.90;;;;;;6257269;23;20229;-85
2022/10/13 00:29:18;;;;;;;35.70;25.35;;;6.40;99.90;;;;;;6256909;23;20394;-87
2022/10/13 00:31:47;;;;;;;41.83;27.40;;;6.30;99.90;;;;;;6254926;22;20209;-84
2022/10/13 00:34:15;;;;;;;38.70;27.75;;;6.40;99.90;;;;;;6253007;23;20246;-86
2022/10/13 00:36:53;;;;;;;41.75;26.27;;;6.40;99.90;;;;;;6252816;23;20183;-85
2022/10/13 00:39:21;;;;;;;41.47;24.63;;;6.40;99.90;;;;;;6260681;22;20374;-90
2022/10/13 00:41:47;;;;;;;38.35;25.92;;;6.40;99.90;;;;;;6255517;22;20186;-87
2022/10/13 00:44:52;;;;;;;41.85;26.02;;;6.30;99.90;;;;;;6255862;23;20217;-87
2022/10/13 00:47:20;;;;;;;41.63;26.27;;;6.40;99.90;;;;;;6254084;23;20265;-87
2022/10/13 00:49:50;;;;;;;40.92;25.77;;;6.40;99.90;;;;;;6252441;22;20536;-84
2022/10/13 00:52:19;;;;;;;36.50;25.70;;;6.40;99.90;;;;;;6252729;22;20545;-87
2022/10/13 00:54:48;;;;;;;40.25;26.00;;;6.30;99.90;;;;;;6252076;23;20232;-87
2022/10/13 00:57:18;;;;;;;36.83;23.63;;;6.30;99.90;;;;;;6226853;23;20206;-87
2022/10/13 00:59:48;;;;;;;43.10;28.58;;;6.30;99.90;;;;;;6252735;22;20234;-89
2022/10/13 01:02:16;;;;;;;31.05;24.48;;;6.20;99.90;;;;;;6252557;23;20190;-86
2022/10/13 01:04:46;;;;;;;34.97;26.60;;;6.20;99.90;;;;;;6251472;23;20199;-87
2022/10/13 01:07:17;;;;;;;39.95;28.02;;;6.20;99.90;;;;;;6253190;22;20339;-88
2022/10/13 01:09:44;;;;;;;39.70;28.15;;;6.20;99.90;;;;;;6254922;22;20174;-86
2022/10/13 01:12:30;;;;;;;36.50;27.42;;;6.20;99.90;;;;;;6252631;23;20462;-89
2022/10/13 01:15:23;;;;;;;32.67;27.00;;;6.10;99.90;;;;;;6255054;23;20182;-89
2022/10/13 01:18:06;;;;;;;36.30;26.40;;;6.00;99.90;;;;;;6254786;23;20405;-87
2022/10/13 01:20:56;;;;;;;39.72;27.77;;;6.00;99.90;;;;;;6259818;22;20183;-88
2022/10/13 01:24:03;;;;;;;37.47;27.63;;;6.00;99.90;;;;;;6247360;22;20203;-87
2022/10/13 01:27:13;;;;;;;42.45;28.02;;;5.90;99.90;;;;;;6254875;22;20202;-87
2022/10/13 01:30:08;;;;;;;33.83;27.20;;;6.00;99.90;;;;;;6272285;22;20173;-88
2022/10/13 01:35:30;;;;;;;38.60;27.50;;;5.90;99.90;;;;;;6249412;22;20197;-87
2022/10/13 01:38:31;;;;;;;37.30;28.55;;;5.90;99.90;;;;;;6260861;22;20202;-90
2022/10/13 01:41:29;;;;;;;41.47;28.27;;;5.80;99.90;;;;;;6162747;22;20174;-89
2022/10/13 01:44:25;;;;;;;33.13;28.95;;;5.80;99.90;;;;;;6271218;22;20178;-90
2022/10/13 01:46:54;;;;;;;43.75;31.50;;;5.90;99.90;;;;;;6259704;22;20183;-87
2022/10/13 01:52:14;;;;;;;43.28;31.33;;;5.80;99.90;;;;;;6200469;23;20191;-87
2022/10/13 01:54:47;;;;;;;38.30;30.08;;;5.80;99.90;;;;;;6202889;23;20172;-86
2022/10/13 01:57:34;;;;;;;38.03;30.50;;;5.60;99.90;;;;;;6202892;23;20196;-89
2022/10/13 02:00:10;;;;;;;38.33;30.17;;;5.60;99.90;;;;;;6219002;22;20531;-88
2022/10/13 02:03:26;;;;;;;39.33;30.85;;;5.70;99.90;;;;;;6206488;23;20209;-86
2022/10/13 02:09:09;;;;;;;42.30;32.50;;;5.80;99.90;;;;;;6279913;22;20231;-86
2022/10/13 02:11:45;;;;;;;44.47;34.55;;;5.80;99.90;;;;;;6276658;22;20198;-87
2022/10/13 02:14:18;;;;;;;52.40;31.83;;;5.70;99.90;;;;;;6286475;22;20210;-86
2022/10/13 02:16:47;;;;;;;42.42;33.13;;;5.70;99.90;;;;;;6292180;22;20171;-86
2022/10/13 02:19:19;;;;;;;51.58;34.83;;;5.70;99.90;;;;;;6266223;22;20426;-88
2022/10/13 02:21:47;;;;;;;47.58;33.10;;;5.60;99.90;;;;;;6261202;22;20155;-87
2022/10/13 02:24:14;;;;;;;41.58;33.28;;;5.60;99.90;;;;;;6287522;22;20261;-86
2022/10/13 02:26:44;;;;;;;41.60;31.92;;;5.60;99.90;;;;;;6289085;22;20235;-89
2022/10/13 02:29:15;;;;;;;43.65;32.90;;;5.70;99.90;;;;;;6289396;22;20182;-87
2022/10/13 02:34:15;;;;;;;43.50;33.33;;;5.80;99.90;;;;;;6272779;22;20239;-86
2022/10/13 02:36:50;;;;;;;47.70;33.67;;;5.60;99.90;;;;;;6265574;23;20178;-88
2022/10/13 02:39:19;;;;;;;47.45;33.53;;;5.60;99.90;;;;;;6255732;23;20210;-86
2022/10/13 02:41:51;;;;;;;40.55;34.72;;;5.70;99.90;;;;;;6252774;23;20175;-86
2022/10/13 02:44:23;;;;;;;58.45;33.45;;;5.60;99.90;;;;;;6252779;23;20242;-89
2022/10/13 02:46:51;;;;;;;46.55;34.60;;;5.60;99.90;;;;;;6254183;23;20546;-90
2022/10/13 02:49:18;;;;;;;45.40;33.10;;;5.60;99.90;;;;;;6266576;22;20269;-87
2022/10/13 02:52:05;;;;;;;45.63;33.67;;;5.60;99.90;;;;;;6283882;22;20170;-90
2022/10/13 02:54:32;;;;;;;46.33;34.67;;;5.40;99.90;;;;;;6284069;22;20538;-86
2022/10/13 02:57:00;;;;;;;43.65;33.10;;;5.30;99.90;;;;;;6282564;22;20240;-87
2022/10/13 02:59:27;;;;;;;46.65;32.65;;;5.50;99.90;;;;;;6285245;22;20181;-85
2022/10/13 03:01:55;;;;;;;50.88;35.67;;;5.50;99.90;;;;;;6286189;22;20220;-85
2022/10/13 03:04:23;;;;;;;52.95;34.25;;;5.60;99.90;;;;;;6287087;22;20244;-86
2022/10/13 03:06:50;;;;;;;47.28;34.20;;;5.50;99.90;;;;;;6285703;22;20190;-86
2022/10/13 03:09:19;;;;;;;55.90;37.75;;;5.40;99.90;;;;;;6287608;22;20746;-88
2022/10/13 03:11:49;;;;;;;44.83;36.28;;;5.40;99.90;;;;;;6284863;22;20205;-89
2022/10/13 03:14:16;;;;;;;49.15;35.08;;;5.40;99.90;;;;;;6286331;22;20201;-84
2022/10/13 03:16:43;;;;;;;44.85;34.65;;;5.30;99.90;;;;;;6281808;22;20220;-84
2022/10/13 03:19:10;;;;;;;59.30;39.85;;;5.40;99.90;;;;;;6287424;22;20235;-85
2022/10/13 03:21:41;;;;;;;51.67;34.63;;;5.30;99.90;;;;;;6286022;22;20222;-84
2022/10/13 03:24:09;;;;;;;46.85;37.38;;;5.30;99.90;;;;;;6286801;22;20208;-88
2022/10/13 03:26:39;;;;;;;47.55;40.60;;;5.30;99.90;;;;;;6283893;22;20189;-87
2022/10/13 03:29:12;;;;;;;51.10;37.13;;;5.30;99.90;;;;;;6289341;22;20494;-89
2022/10/13 03:31:49;;;;;;;55.28;38.75;;;5.40;99.90;;;;;;6285789;22;20167;-89
2022/10/13 03:34:19;;;;;;;51.75;40.45;;;5.40;99.90;;;;;;6285178;22;20217;-87
2022/10/13 03:36:47;;;;;;;56.35;39.85;;;5.30;99.90;;;;;;6284881;22;20170;-90
2022/10/13 03:39:14;;;;;;;50.70;38.42;;;5.40;99.90;;;;;;6270651;22;20186;-86
2022/10/13 03:41:41;;;;;;;48.97;39.28;;;5.40;99.90;;;;;;6287990;22;20192;-90
2022/10/13 03:44:12;;;;;;;49.75;39.90;;;5.40;99.90;;;;;;6287784;22;20182;-90
2022/10/13 03:46:39;;;;;;;54.08;40.33;;;5.30;99.90;;;;;;6260394;22;20186;-89
2022/10/13 03:49:10;;;;;;;47.53;38.60;;;5.30;99.90;;;;;;6289242;22;20189;-89
2022/10/13 03:51:39;;;;;;;54.92;40.38;;;5.40;99.90;;;;;;6285844;22;20232;-84
2022/10/13 03:54:12;;;;;;;55.72;41.40;;;5.30;99.90;;;;;;6286575;22;20237;-89
2022/10/13 03:56:41;;;;;;;50.25;38.15;;;5.30;99.90;;;;;;6258105;22;20178;-88
2022/10/13 03:59:12;;;;;;;46.88;37.90;;;5.30;99.90;;;;;;6285223;22;20186;-86
2022/10/13 04:01:39;;;;;;;51.13;39.05;;;5.30;99.90;;;;;;6284402;22;20185;-89
2022/10/13 04:04:09;;;;;;;50.13;39.35;;;5.40;99.90;;;;;;6286833;22;20201;-89
2022/10/13 04:06:39;;;;;;;65.95;42.35;;;5.20;99.90;;;;;;6268456;22;20170;-88
2022/10/13 04:09:06;;;;;;;60.13;41.20;;;5.20;99.90;;;;;;6296683;22;20185;-85
2022/10/13 04:11:35;;;;;;;55.83;39.67;;;5.20;99.90;;;;;;6291774;22;20198;-86
2022/10/13 04:14:03;;;;;;;57.10;40.30;;;5.20;99.90;;;;;;6294515;22;20174;-84
2022/10/13 04:16:30;;;;;;;54.35;39.50;;;5.30;99.90;;;;;;6285960;22;20183;-90
2022/10/13 04:19:01;;;;;;;51.83;40.58;;;5.30;99.90;;;;;;6261893;22;20166;-87
2022/10/13 04:21:32;;;;;;;52.13;38.85;;;5.40;99.90;;;;;;6261448;22;20178;-86
2022/10/13 04:24:00;;;;;;;51.35;40.22;;;5.40;99.90;;;;;;6286408;22;20272;-87
2022/10/13 04:26:30;;;;;;;48.85;37.30;;;5.30;99.90;;;;;;6286597;22;20169;-87
2022/10/13 04:29:03;;;;;;;56.80;37.20;;;5.40;99.90;;;;;;6264084;22;20306;-86
2022/10/13 04:31:30;;;;;;;52.92;36.75;;;5.40;99.90;;;;;;6289190;22;20178;-88
2022/10/13 04:33:58;;;;;;;44.53;37.95;;;5.30;99.90;;;;;;6263456;22;20170;-90
2022/10/13 04:36:26;;;;;;;44.17;35.13;;;5.30;99.90;;;;;;6287005;22;20260;-88
2022/10/13 04:38:54;;;;;;;51.13;38.20;;;5.40;99.90;;;;;;6286207;22;20178;-86
2022/10/13 04:41:23;;;;;;;54.30;38.75;;;5.50;99.90;;;;;;6287535;22;20182;-86
2022/10/13 04:43:51;;;;;;;45.50;37.10;;;5.40;99.90;;;;;;6286406;22;20206;-87
2022/10/13 04:46:22;;;;;;;48.35;37.58;;;5.30;99.90;;;;;;6281593;22;20182;-86
2022/10/13 04:48:51;;;;;;;46.55;36.28;;;5.10;99.90;;;;;;6285529;22;20178;-86
2022/10/13 04:51:23;;;;;;;51.95;37.42;;;5.20;99.90;;;;;;6282706;22;20230;-87
2022/10/13 04:53:56;;;;;;;53.15;36.85;;;5.20;99.90;;;;;;6286021;22;20222;-89
2022/10/13 04:56:32;;;;;;;46.30;37.08;;;5.30;99.90;;;;;;6284010;22;20177;-88
2022/10/13 04:59:06;;;;;;;54.47;38.08;;;5.40;99.90;;;;;;6288718;22;20165;-88
2022/10/13 05:01:35;;;;;;;51.83;40.10;;;5.30;99.90;;;;;;6285465;22;20225;-85
2022/10/13 05:04:10;;;;;;;52.88;37.30;;;5.40;99.90;;;;;;6281391;22;20202;-88
2022/10/13 05:06:42;;;;;;;45.97;36.20;;;5.30;99.90;;;;;;6260695;22;20228;-85
2022/10/13 05:09:31;;;;;;;48.42;38.70;;;5.30;99.90;;;;;;6285828;22;20185;-84
2022/10/13 05:12:01;;;;;;;58.50;39.95;;;5.30;99.90;;;;;;6283064;22;20178;-88
2022/10/13 05:14:37;;;;;;;57.53;38.70;;;5.30;99.90;;;;;;6286685;22;20220;-86
2022/10/13 05:17:09;;;;;;;54.72;39.78;;;5.20;99.90;;;;;;6288500;22;20439;-84
2022/10/13 05:22:22;;;;;;;56.75;38.95;;;5.10;99.90;;;;;;6272319;22;20217;-84
2022/10/13 05:24:49;;;;;;;62.70;39.13;;;5.30;99.90;;;;;;6288224;22;20258;-84
2022/10/13 05:27:17;;;;;;;56.35;40.38;;;5.40;99.90;;;;;;6267572;22;20379;-84
2022/10/13 05:29:43;;;;;;;47.78;38.00;;;5.20;99.90;;;;;;6242590;22;20200;-86
2022/10/13 05:32:11;;;;;;;49.75;38.80;;;5.30;99.90;;;;;;6274219;22;20178;-87
2022/10/13 05:34:41;;;;;;;50.90;38.67;;;5.30;99.90;;;;;;6274219;22;20173;-88
2022/10/13 05:37:08;;;;;;;54.22;39.85;;;5.30;99.90;;;;;;6301604;22;20170;-88
2022/10/13 05:39:35;;;;;;;55.15;38.38;;;5.40;99.90;;;;;;6301273;22;20162;-86
2022/10/13 05:42:04;;;;;;;57.17;39.38;;;5.30;99.90;;;;;;6276320;22;20193;-88
2022/10/13 05:44:31;;;;;;;52.53;37.95;;;5.30;99.90;;;;;;6275502;22;20220;-84
2022/10/13 05:47:02;;;;;;;62.33;41.38;;;5.40;99.90;;;;;;6292935;22;20202;-88
2022/10/13 05:49:35;;;;;;;62.15;40.45;;;5.50;99.90;;;;;;6302306;22;20184;-89
2022/10/13 05:52:07;;;;;;;58.33;39.15;;;5.40;99.90;;;;;;6276809;22;20192;-88
2022/10/13 05:54:50;;;;;;;57.47;39.95;;;5.40;99.90;;;;;;6276450;22;20408;-90
2022/10/13 05:57:29;;;;;;;62.97;41.63;;;5.30;99.90;;;;;;6286907;22;20217;-88
2022/10/13 06:00:16;;;;;;;49.83;40.33;;;5.40;99.90;;;;;;6228233;22;20214;-87
2022/10/13 06:03:05;;;;;;;58.15;43.45;;;5.60;99.90;;;;;;6234403;22;20203;-87
2022/10/13 06:05:35;;;;;;;51.55;40.85;;;5.80;99.90;;;;;;6230437;22;20218;-89
2022/10/13 06:13:17;;;;;;;50.78;36.72;;;6.00;99.90;;;;;;6222463;22;20310;-88
2022/10/13 06:15:46;;;;;;;50.50;40.25;;;5.90;99.90;;;;;;6247111;22;20189;-91
2022/10/13 06:18:17;;;;;;;49.35;35.63;;;6.10;99.90;;;;;;6240030;22;20344;-91
2022/10/13 06:20:46;;;;;;;44.40;36.00;;;6.30;99.90;;;;;;6245776;22;20191;-89
2022/10/13 06:23:14;;;;;;;49.25;33.40;;;6.60;99.90;;;;;;6249932;23;20155;-90
2022/10/13 06:25:52;;;;;;;46.90;33.22;;;6.60;99.90;;;;;;6248983;23;20182;-89
2022/10/13 06:28:20;;;;;;;44.65;34.95;;;6.90;99.90;;;;;;6244917;22;20167;-89
2022/10/13 06:30:58;;;;;;;47.35;35.20;;;6.80;99.90;;;;;;6213012;22;22302;-90
2022/10/13 06:33:33;;;;;;;48.03;36.53;;;6.80;99.90;;;;;;6295532;22;20226;-88
2022/10/13 06:41:14;;;;;;;45.10;33.30;;;6.80;99.90;;;;;;6281331;22;20205;-91
2022/10/13 06:51:25;;;;;;;50.78;35.28;;;6.90;99.90;;;;;;6269058;22;20194;-88
2022/10/13 06:53:55;;;;;;;44.60;33.67;;;7.10;99.90;;;;;;6263730;22;20186;-88
2022/10/13 06:59:00;;;;;;;56.95;35.85;;;7.40;99.90;;;;;;6269458;22;20189;-90
2022/10/13 07:22:56;;;;;;;33.67;23.70;;;10.60;99.90;;;;;;6223452;22;20209;-88
2022/10/13 07:28:12;;;;;;;27.45;22.15;;;13.50;99.90;;;;;;6253304;22;20210;-89
2022/10/13 07:30:39;;;;;;;28.58;21.20;;;14.90;99.90;;;;;;6289191;22;20191;-89
2022/10/13 07:38:36;;;;;;;27.97;21.93;;;16.30;99.90;;;;;;6198387;22;20409;-91
2022/10/13 07:51:45;;;;;;;30.43;21.50;;;18.60;99.90;;;;;;6294244;22;20513;-92
2022/10/13 07:54:17;;;;;;;32.53;22.23;;;18.90;99.90;;;;;;6267144;22;20399;-89
2022/10/13 07:56:52;;;;;;;32.67;24.00;;;19.80;99.90;;;;;;6263648;22;20408;-89
2022/10/13 07:59:19;;;;;;;29.83;22.10;;;19.30;99.90;;;;;;6287270;22;20386;-90
2022/10/13 08:01:48;;;;;;;29.60;21.63;;;18.60;99.90;;;;;;6261575;22;20399;-92
2022/10/13 08:04:18;;;;;;;23.00;20.60;;;18.40;99.90;;;;;;6265700;22;20441;-89
2022/10/13 08:06:49;;;;;;;25.00;20.00;;;18.50;99.90;;;;;;6262800;22;20404;-90
2022/10/13 08:09:16;;;;;;;26.60;20.07;;;17.60;99.90;;;;;;6261968;22;20391;-90
2022/10/13 08:11:45;;;;;;;24.30;20.00;;;16.50;99.90;;;;;;6286474;22;20468;-89
2022/10/13 08:14:16;;;;;;;31.13;20.30;;;17.80;99.90;;;;;;6287569;22;20635;-86
2022/10/13 08:16:44;;;;;;;21.83;19.47;;;18.50;99.90;;;;;;6292843;22;20439;-87
2022/10/13 08:19:17;;;;;;;22.77;20.30;;;18.80;99.90;;;;;;6291442;22;20434;-90
2022/10/13 08:21:53;;;;;;;26.03;20.13;;;19.60;99.90;;;;;;6302624;22;20365;-90
2022/10/13 08:26:55;;;;;;;23.10;18.53;;;19.60;99.90;;;;;;6236809;22;20414;-90
2022/10/13 08:29:27;;;;;;;27.60;21.53;;;19.10;99.90;;;;;;6231338;23;20376;-89
2022/10/13 08:31:59;;;;;;;25.83;18.43;;;18.40;99.90;;;;;;6205442;23;20417;-91
2022/10/13 08:34:27;;;;;;;22.40;18.77;;;18.50;99.90;;;;;;6199939;23;20430;-89
2022/10/13 08:36:56;;;;;;;24.23;16.10;;;18.20;99.90;;;;;;6198524;23;20380;-90
2022/10/13 08:39:25;;;;;;;20.50;17.17;;;17.90;99.90;;;;;;6177787;23;20383;-91
2022/10/13 08:41:56;;;;;;;21.00;17.00;;;18.60;99.90;;;;;;6176788;23;20364;-88
2022/10/13 08:44:35;;;;;;;22.20;17.27;;;18.60;99.90;;;;;;6200095;23;20405;-88
2022/10/13 08:47:41;;;;;;;22.37;17.40;;;18.40;99.90;;;;;;6223863;23;20549;-88
2022/10/13 08:50:20;;;;;;;22.83;17.30;;;19.50;99.90;;;;;;6225699;23;20414;-86
2022/10/13 08:52:58;;;;;;;27.70;19.23;;;19.30;99.90;;;;;;6202623;23;20396;-89
2022/10/13 08:55:53;;;;;;;23.13;16.07;;;19.90;99.90;;;;;;6227072;23;20403;-87
2022/10/13 08:58:30;;;;;;;22.07;17.73;;;19.10;99.90;;;;;;6177019;23;20440;-86
2022/10/13 09:01:18;;;;;;;29.87;19.07;;;18.80;99.90;;;;;;6200631;23;20375;-87
2022/10/13 09:04:24;;;;;;;25.70;18.70;;;18.60;99.90;;;;;;6225395;23;20765;-88
2022/10/13 09:07:19;;;;;;;21.53;18.87;;;18.20;99.90;;;;;;6199045;23;20430;-88
2022/10/13 09:09:50;;;;;;;28.17;16.63;;;17.50;99.90;;;;;;6200942;23;20512;-89
2022/10/13 09:12:25;;;;;;;22.83;15.27;;;16.60;99.90;;;;;;6200463;23;20374;-87
2022/10/13 09:15:02;;;;;;;17.10;14.40;;;16.00;99.90;;;;;;6176243;23;20452;-87
2022/10/13 09:17:33;;;;;;;19.50;13.73;;;15.30;99.90;;;;;;6204544;23;20397;-88
2022/10/13 09:20:07;;;;;;;19.13;16.47;;;15.60;99.90;;;;;;6228401;23;20451;-90
2022/10/13 09:22:38;;;;;;;23.23;14.27;;;15.30;99.90;;;;;;6264147;23;20384;-87
2022/10/13 09:25:14;;;;;;;19.10;13.90;;;15.10;99.90;;;;;;6229324;23;20420;-88
2022/10/13 09:28:12;;;;;;;20.87;14.33;;;14.90;99.90;;;;;;6256419;23;20421;-88
2022/10/13 09:31:00;;;;;;;17.47;12.20;;;14.80;99.90;;;;;;6213708;23;20388;-87
2022/10/13 09:33:27;;;;;;;17.60;14.27;;;14.70;99.90;;;;;;6236012;22;20410;-89
2022/10/13 09:36:15;;;;;;;22.90;15.87;;;14.90;99.90;;;;;;6244084;22;20436;-86
2022/10/13 09:39:06;;;;;;;18.87;13.30;;;14.70;99.90;;;;;;6269102;22;20448;-89
2022/10/13 09:41:34;;;;;;;16.37;14.33;;;14.70;99.90;;;;;;6254291;23;20443;-87
2022/10/13 09:44:28;;;;;;;18.30;13.40;;;14.60;99.90;;;;;;6254765;23;20410;-89
2022/10/13 09:47:02;;;;;;;17.55;13.80;;;14.50;99.90;;;;;;6228344;23;20391;-86
2022/10/13 09:49:42;;;;;;;20.75;13.07;;;14.50;99.90;;;;;;6223166;23;20212;-87
2022/10/13 09:52:20;;;;;;;26.80;13.50;;;14.60;99.90;;;;;;6228425;23;20176;-87
2022/10/13 09:54:57;;;;;;;25.23;14.20;;;14.80;99.90;;;;;;6254939;23;20399;-88
2022/10/13 09:58:05;;;;;;;19.07;12.43;;;15.10;99.90;;;;;;6228038;23;20406;-86
2022/10/13 10:00:34;;;;;;;16.03;12.53;;;15.30;99.90;;;;;;6162285;23;20414;-87
2022/10/13 10:03:22;;;;;;;18.67;13.23;;;15.40;99.90;;;;;;6242642;23;20445;-85
2022/10/13 10:05:55;;;;;;;15.87;11.53;;;15.30;99.90;;;;;;6254105;23;20458;-88
2022/10/13 10:08:39;;;;;;;14.93;13.23;;;15.40;99.90;;;;;;6254801;23;20379;-87
2022/10/13 10:11:38;;;;;;;14.37;12.10;;;15.60;99.90;;;;;;6255520;23;20422;-86
2022/10/13 10:14:22;;;;;;;21.47;11.63;;;15.70;99.90;;;;;;6229455;23;20409;-87
2022/10/13 10:17:03;;;;;;;16.50;11.27;;;15.50;99.90;;;;;;6258873;23;20740;-88
2022/10/13 10:20:20;;;;;;;12.20;10.50;;;15.50;99.90;;;;;;6231017;23;20809;-88
2022/10/13 10:23:24;;;;;;;17.93;11.60;;;15.50;99.90;;;;;;6254722;23;20405;-89
2022/10/13 10:26:02;;;;;;;19.93;14.07;;;15.70;99.90;;;;;;6254929;23;20730;-89
2022/10/13 10:28:57;;;;;;;14.33;10.60;;;15.80;99.90;;;;;;6252516;23;20395;-88
2022/10/13 10:31:44;;;;;;;25.53;11.63;;;15.80;99.90;;;;;;6255577;23;20376;-88
2022/10/13 10:34:39;;;;;;;14.63;10.60;;;15.70;99.90;;;;;;6250644;23;20443;-87
2022/10/13 10:37:15;;;;;;;19.00;10.10;;;15.70;99.90;;;;;;6228048;23;20377;-87
2022/10/13 10:39:54;;;;;;;14.13;10.90;;;15.90;99.90;;;;;;6254143;23;20372;-87
2022/10/13 10:42:36;;;;;;;14.47;10.40;;;15.80;99.90;;;;;;6229058;23;20549;-88
2022/10/13 10:45:12;;;;;;;13.13;10.60;;;16.10;99.90;;;;;;6255419;23;20421;-86
2022/10/13 10:47:49;;;;;;;14.77;11.97;;;16.40;99.90;;;;;;6230907;23;20373;-86
2022/10/13 10:50:18;;;;;;;11.27;10.07;;;16.40;99.90;;;;;;6228992;23;20377;-86
2022/10/13 10:53:05;;;;;;;13.83;10.47;;;16.40;99.90;;;;;;6228204;23;20404;-88
2022/10/13 10:55:53;;;;;;;12.20;10.13;;;16.40;99.90;;;;;;6230082;23;20458;-88
2022/10/13 10:58:23;;;;;;;14.80;10.20;;;16.50;99.90;;;;;;6254652;23;20408;-86
2022/10/13 11:01:05;;;;;;;13.40;9.90;;;16.50;99.90;;;;;;6255468;23;20389;-86
2022/10/13 11:04:20;;;;;;;10.37;9.07;;;16.50;99.90;;;;;;6246651;23;20428;-85
2022/10/13 11:06:53;;;;;;;18.30;10.20;;;16.40;99.90;;;;;;6257308;23;20505;-88
2022/10/13 11:10:00;;;;;;;14.67;10.77;;;16.40;99.90;;;;;;6240096;22;20462;-88
2022/10/13 11:12:51;;;;;;;13.50;8.80;;;16.50;99.90;;;;;;6179511;23;20377;-89
2022/10/13 11:15:40;;;;;;;12.63;10.20;;;16.70;99.90;;;;;;6269083;22;20392;-88
2022/10/13 11:18:46;;;;;;;9.43;8.07;;;16.70;99.90;;;;;;6275578;22;20452;-89
2022/10/13 11:21:15;;;;;;;11.93;7.70;;;16.50;99.90;;;;;;6290909;22;20403;-90
2022/10/13 11:23:45;;;;;;;12.60;9.00;;;16.40;99.90;;;;;;6300215;22;20424;-92
2022/10/13 11:26:25;;;;;;;11.63;9.37;;;16.40;99.90;;;;;;6273998;22;20425;-88
2022/10/13 11:28:57;;;;;;;24.53;8.20;;;16.60;99.90;;;;;;6291853;22;20385;-91
2022/10/13 11:31:46;;;;;;;14.20;8.23;;;16.70;99.90;;;;;;6288818;22;20372;-88
2022/10/13 11:34:27;;;;;;;10.77;6.77;;;16.60;99.90;;;;;;6289313;22;20403;-89
2022/10/13 11:36:58;;;;;;;8.67;7.30;;;16.80;99.90;;;;;;6284657;22;20370;-89
2022/10/13 11:39:31;;;;;;;10.03;8.17;;;16.90;99.90;;;;;;6285118;22;20410;-89
2022/10/13 11:42:27;;;;;;;13.27;8.27;;;16.80;99.90;;;;;;6287377;22;20463;-89
2022/10/13 11:45:35;;;;;;;12.13;8.63;;;16.90;99.90;;;;;;6289581;22;20457;-91
2022/10/13 11:49:00;;;;;;;9.90;8.90;;;17.00;99.90;;;;;;6271907;22;20403;-88
2022/10/13 11:51:48;;;;;;;8.63;6.70;;;17.10;99.90;;;;;;6280730;22;20471;-90
2022/10/13 11:54:21;;;;;;;9.90;5.77;;;17.20;99.90;;;;;;6266328;22;20383;-89
2022/10/13 11:56:56;;;;;;;8.20;7.13;;;17.20;99.90;;;;;;6263985;22;20449;-91
2022/10/13 11:59:36;;;;;;;11.60;7.20;;;17.10;99.90;;;;;;6263694;22;20355;-86
2022/10/13 12:02:18;;;;;;;8.43;5.57;;;17.20;99.90;;;;;;6290469;22;20449;-89
2022/10/13 12:05:18;;;;;;;7.37;6.00;;;17.20;99.90;;;;;;6240051;22;20381;-91
2022/10/13 12:07:49;;;;;;;9.40;6.00;;;17.30;99.90;;;;;;6260822;22;20432;-88
2022/10/13 12:10:36;;;;;;;6.40;5.50;;;17.30;99.90;;;;;;6291796;22;20427;-91
2022/10/13 12:13:07;;;;;;;11.60;6.33;;;17.10;99.90;;;;;;6237807;22;20459;-90
2022/10/13 12:15:41;;;;;;;15.63;7.93;;;17.30;99.90;;;;;;6262063;22;20435;-91
2022/10/13 12:20:55;;;;;;;10.27;6.60;;;17.50;99.90;;;;;;6289636;22;20472;-91
2022/10/13 12:23:24;;;;;;;9.00;5.53;;;17.60;99.90;;;;;;6290028;22;20385;-91
2022/10/13 12:25:57;;;;;;;7.30;6.10;;;17.60;99.90;;;;;;6259849;22;20472;-90
2022/10/13 12:29:03;;;;;;;9.33;5.67;;;17.40;99.90;;;;;;6265602;22;20410;-90
2022/10/13 12:31:45;;;;;;;7.67;6.80;;;17.40;99.90;;;;;;6287768;22;20415;-90
2022/10/13 12:34:30;;;;;;;7.90;6.60;;;17.50;99.90;;;;;;6283137;22;20901;-90
2022/10/13 12:36:59;;;;;;;13.50;6.33;;;17.70;99.90;;;;;;6291090;22;20458;-89
2022/10/13 12:39:37;;;;;;;9.07;6.10;;;17.60;99.90;;;;;;6230127;22;20641;-90
2022/10/13 12:42:09;;;;;;;9.60;5.10;;;17.60;99.90;;;;;;6253650;23;20359;-89
2022/10/13 12:44:43;;;;;;;13.83;6.03;;;17.60;99.90;;;;;;6258595;22;20637;-90
2022/10/13 12:47:46;;;;;;;9.43;6.90;;;17.60;99.90;;;;;;6259202;23;20450;-91
2022/10/13 12:50:29;;;;;;;17.97;6.57;;;17.50;99.90;;;;;;6246700;22;20422;-90
2022/10/13 12:53:06;;;;;;;11.20;5.60;;;17.70;99.90;;;;;;6264874;22;20377;-90
2022/10/13 12:55:37;;;;;;;10.53;4.87;;;17.90;99.90;;;;;;6269413;22;20450;-90
2022/10/13 12:58:32;;;;;;;9.93;4.90;;;17.90;99.90;;;;;;6261465;22;20419;-89
2022/10/13 13:01:24;;;;;;;9.00;5.57;;;18.00;99.90;;;;;;6255651;22;20427;-89
2022/10/13 13:04:15;;;;;;;10.23;5.80;;;18.10;99.90;;;;;;6263072;22;20409;-87
2022/10/13 13:06:59;;;;;;;12.47;5.73;;;17.90;99.90;;;;;;6248118;23;20451;-91
2022/10/13 13:09:32;;;;;;;7.07;5.20;;;18.00;99.90;;;;;;6263150;22;20430;-91
2022/10/13 13:12:11;;;;;;;8.63;6.27;;;17.90;99.90;;;;;;6260224;22;20451;-87
2022/10/13 13:22:52;;;;;;;12.33;5.80;;;17.80;99.90;;;;;;6238371;23;20447;-89
2022/10/13 13:25:29;;;;;;;5.70;5.03;;;17.70;99.90;;;;;;6207908;23;20401;-86
2022/10/13 13:27:56;;;;;;;5.70;5.10;;;17.70;99.90;;;;;;6209412;23;20465;-90
2022/10/13 13:30:24;;;;;;;9.20;5.87;;;17.70;99.90;;;;;;6233719;23;20629;-90
2022/10/13 13:33:11;;;;;;;8.27;4.80;;;17.70;99.90;;;;;;6175868;22;20431;-90
2022/10/13 13:35:43;;;;;;;8.87;5.70;;;17.50;99.90;;;;;;6281926;22;20830;-88
2022/10/13 13:38:12;;;;;;;8.33;5.60;;;17.60;99.90;;;;;;6292065;22;20378;-91
2022/10/13 13:40:39;;;;;;;9.57;4.83;;;17.40;99.90;;;;;;6293445;22;20400;-89
2022/10/13 13:43:07;;;;;;;6.30;5.23;;;17.40;99.90;;;;;;6292025;22;20399;-89
2022/10/13 13:51:04;;;;;;;8.23;5.50;;;17.30;99.90;;;;;;6257852;22;20451;-92
2022/10/13 14:01:45;;;;;;;7.43;5.63;;;17.00;99.90;;;;;;6264686;22;20429;-90
2022/10/13 14:04:17;;;;;;;6.33;5.73;;;16.80;99.90;;;;;;6239676;22;20449;-90
2022/10/13 14:06:45;;;;;;;8.20;5.43;;;17.10;99.90;;;;;;6211636;23;20486;-90
2022/10/13 14:17:15;;;;;;;9.13;5.00;;;16.90;99.90;;;;;;6242133;23;20459;-88
2022/10/13 14:19:43;;;;;;;6.80;4.93;;;16.80;99.90;;;;;;6216787;23;20408;-89
2022/10/13 14:25:02;;;;;;;5.73;5.23;;;16.80;99.90;;;;;;6258835;22;20450;-90
2022/10/13 14:27:33;;;;;;;10.60;5.10;;;16.70;99.90;;;;;;6236922;22;20462;-89
2022/10/13 14:32:30;;;;;;;7.13;5.50;;;16.90;99.90;;;;;;6272650;22;21294;-91
2022/10/13 14:34:58;;;;;;;6.77;4.90;;;16.90;99.90;;;;;;6246054;22;20364;-85
2022/10/13 14:37:26;;;;;;;11.00;6.33;;;16.80;99.90;;;;;;6226893;22;20444;-90
2022/10/13 14:40:00;;;;;;;6.50;4.77;;;16.90;99.90;;;;;;6254317;22;20453;-88
2022/10/13 14:42:32;;;;;;;5.90;5.27;;;16.80;99.90;;;;;;6263389;22;20805;-90
2022/10/13 14:45:05;;;;;;;7.03;5.97;;;16.70;99.90;;;;;;6262137;23;20443;-91
2022/10/13 14:50:08;;;;;;;7.43;5.60;;;16.70;99.90;;;;;;6288575;22;20495;-89
2022/10/13 14:52:37;;;;;;;7.37;6.13;;;16.80;99.90;;;;;;6293253;22;20404;-89
2022/10/13 14:55:05;;;;;;;6.90;4.10;;;16.60;99.90;;;;;;6291074;22;20491;-90
2022/10/13 15:00:23;;;;;;;10.10;5.33;;;16.60;99.90;;;;;;6283846;22;20466;-91
2022/10/13 15:03:09;;;;;;;12.13;5.90;;;16.60;99.90;;;;;;6295413;22;20405;-88
2022/10/13 15:05:47;;;;;;;9.30;6.33;;;16.60;99.90;;;;;;6271291;22;20410;-87
2022/10/13 15:08:18;;;;;;;11.43;9.37;;;16.50;99.90;;;;;;6244584;22;20368;-91
2022/10/13 15:11:21;;;;;;;8.17;4.77;;;16.50;99.90;;;;;;6271563;22;20409;-91
2022/10/13 15:14:31;;;;;;;8.93;4.97;;;16.50;99.90;;;;;;6297283;22;20376;-89
2022/10/13 15:17:18;;;;;;;7.67;6.20;;;16.40;99.90;;;;;;6230946;22;20411;-87
2022/10/13 15:19:47;;;;;;;14.30;5.70;;;16.20;99.90;;;;;;6231062;23;20401;-90
2022/10/13 15:36:08;;;;;;;8.63;6.40;;;16.00;99.90;;;;;;6260784;22;20443;-91